sensor_id;sensor_type;location;lat;lon;timestamp;temperature;humidity
47162;DHT22;32921;53.256;8.198;2023-07-31T00:00:11;15.90;99.90
47162;DHT22;32921;53.256;8.198;2023-07-31T00:02:38;15.90;99.90
47162;DHT22;32921;53.256;8.198;2023-07-31T00:05:04;15.90;99.90
47162;DHT22;32921;53.256;8.198;2023-07-31T00:07:29;15.90;99.90
47162;DHT22;32921;53.256;8.198;2023-07-31T00:09:55;15.90;99.90
47162;DHT22;32921;53.256;8.198;2023-07-31T00:12:22;16.00;99.90
47162;DHT22;32921;53.256;8.198;2023-07-31T00:14:47;16.00;99.90
47162;DHT22;32921;53.256;8.198;2023-07-31T00:17:13;16.10;99.90
47162;DHT22;32921;53.256;8.198;2023-07-31T00:19:39;16.10;99.90
47162;DHT22;32921;53.256;8.198;2023-07-31T00:22:05;16.10;99.90
47162;DHT22;32921;53.256;8.198;2023-07-31T00:24:30;16.10;99.90
47162;DHT22;32921;53.256;8.198;2023-07-31T00:26:56;16.10;99.90
47162;DHT22;32921;53.256;8.198;2023-07-31T00:29:21;16.00;99.90
47162;DHT22;32921;53.256;8.198;2023-07-31T00:31:47;16.00;99.90
47162;DHT22;32921;53.256;8.198;2023-07-31T00:34:12;16.00;99.90
47162;DHT22;32921;53.256;8.198;2023-07-31T00:36:38;16.00;99.90
47162;DHT22;32921;53.256;8.198;2023-07-31T00:39:03;16.00;99.90
47162;DHT22;32921;53.256;8.198;2023-07-31T00:41:30;16.00;99.90
47162;DHT22;32921;53.256;8.198;2023-07-31T00:43:55;16.00;99.90
47162;DHT22;32921;53.256;8.198;2023-07-31T00:46:21;16.00;99.90
47162;DHT22;32921;53.256;8.198;2023-07-31T00:48:47;16.00;99.90
47162;DHT22;32921;53.256;8.198;2023-07-31T00:51:12;15.90;99.90
47162;DHT22;32921;53.256;8.198;2023-07-31T00:53:39;16.00;99.90
47162;DHT22;32921;53.256;8.198;2023-07-31T00:56:05;16.00;99.90
47162;DHT22;32921;53.256;8.198;2023-07-31T00:58:31;16.00;99.90
47162;DHT22;32921;53.256;8.198;2023-07-31T01:00:57;16.10;99.90
47162;DHT22;32921;53.256;8.198;2023-07-31T01:03:22;16.00;99.90
47162;DHT22;32921;53.256;8.198;2023-07-31T01:06:05;16.10;99.90
47162;DHT22;32921;53.256;8.198;2023-07-31T01:11:33;16.10;99.90
47162;DHT22;32921;53.256;8.198;2023-07-31T01:14:00;16.10;99.90
47162;DHT22;32921;53.256;8.198;2023-07-31T01:16:26;16.10;99.90
47162;DHT22;32921;53.256;8.198;2023-07-31T01:18:52;16.10;99.90
47162;DHT22;32921;53.256;8.198;2023-07-31T01:26:34;16.00;99.90
47162;DHT22;32921;53.256;8.198;2023-07-31T01:29:15;16.00;99.90
47162;DHT22;32921;53.256;8.198;2023-07-31T01:31:44;16.00;99.90
47162;DHT22;32921;53.256;8.198;2023-07-31T01:34:11;15.90;99.90
47162;DHT22;32921;53.256;8.198;2023-07-31T01:36:38;15.90;99.90
47162;DHT22;32921;53.256;8.198;2023-07-31T01:39:03;15.80;99.90
47162;DHT22;32921;53.256;8.198;2023-07-31T01:41:29;15.80;99.90
47162;DHT22;32921;53.256;8.198;2023-07-31T01:43:55;15.70;99.90
47162;DHT22;32921;53.256;8.198;2023-07-31T01:46:20;15.60;99.90
47162;DHT22;32921;53.256;8.198;2023-07-31T01:48:46;15.60;99.90
47162;DHT22;32921;53.256;8.198;2023-07-31T01:51:11;15.60;99.90
47162;DHT22;32921;53.256;8.198;2023-07-31T01:53:37;15.50;99.90
47162;DHT22;32921;53.256;8.198;2023-07-31T01:56:03;15.50;99.90
47162;DHT22;32921;53.256;8.198;2023-07-31T01:58:28;15.50;99.90
47162;DHT22;32921;53.256;8.198;2023-07-31T02:00:54;15.50;99.90
47162;DHT22;32921;53.256;8.198;2023-07-31T02:03:20;15.50;99.90
47162;DHT22;32921;53.256;8.198;2023-07-31T02:05:49;15.50;99.90
47162;DHT22;32921;53.256;8.198;2023-07-31T02:08:15;15.40;99.90
47162;DHT22;32921;53.256;8.198;2023-07-31T02:10:41;15.40;99.90
47162;DHT22;32921;53.256;8.198;2023-07-31T02:13:06;15.40;99.90
47162;DHT22;32921;53.256;8.198;2023-07-31T02:15:32;15.40;99.90
47162;DHT22;32921;53.256;8.198;2023-07-31T02:17:58;15.30;99.90
47162;DHT22;32921;53.256;8.198;2023-07-31T02:20:23;15.30;99.90
47162;DHT22;32921;53.256;8.198;2023-07-31T02:22:49;15.30;99.90
47162;DHT22;32921;53.256;8.198;2023-07-31T02:25:15;15.20;99.90
47162;DHT22;32921;53.256;8.198;2023-07-31T02:27:40;15.30;99.90
47162;DHT22;32921;53.256;8.198;2023-07-31T02:30:06;15.30;99.90
47162;DHT22;32921;53.256;8.198;2023-07-31T02:32:32;15.20;99.90
47162;DHT22;32921;53.256;8.198;2023-07-31T02:34:58;15.20;99.90
47162;DHT22;32921;53.256;8.198;2023-07-31T02:37:24;15.20;99.90
47162;DHT22;32921;53.256;8.198;2023-07-31T02:39:50;15.20;99.90
47162;DHT22;32921;53.256;8.198;2023-07-31T02:42:15;15.20;99.90
47162;DHT22;32921;53.256;8.198;2023-07-31T02:44:41;15.20;99.90
47162;DHT22;32921;53.256;8.198;2023-07-31T02:47:06;15.20;99.90
47162;DHT22;32921;53.256;8.198;2023-07-31T02:49:32;15.20;99.90
47162;DHT22;32921;53.256;8.198;2023-07-31T02:51:58;15.30;99.90
47162;DHT22;32921;53.256;8.198;2023-07-31T02:54:23;15.20;99.90
47162;DHT22;32921;53.256;8.198;2023-07-31T02:56:49;15.20;99.90
47162;DHT22;32921;53.256;8.198;2023-07-31T02:59:14;15.20;99.90
47162;DHT22;32921;53.256;8.198;2023-07-31T03:01:40;15.20;99.90
47162;DHT22;32921;53.256;8.198;2023-07-31T03:04:05;15.20;99.90
47162;DHT22;32921;53.256;8.198;2023-07-31T03:06:31;15.20;99.90
47162;DHT22;32921;53.256;8.198;2023-07-31T03:08:56;15.20;99.90
47162;DHT22;32921;53.256;8.198;2023-07-31T03:11:22;15.20;99.90
47162;DHT22;32921;53.256;8.198;2023-07-31T03:13:48;15.10;99.90
47162;DHT22;32921;53.256;8.198;2023-07-31T03:16:13;15.10;99.90
47162;DHT22;32921;53.256;8.198;2023-07-31T03:18:39;15.20;99.90
47162;DHT22;32921;53.256;8.198;2023-07-31T03:21:04;15.20;99.90
47162;DHT22;32921;53.256;8.198;2023-07-31T03:23:30;15.20;99.90
47162;DHT22;32921;53.256;8.198;2023-07-31T03:26:06;15.20;99.90
47162;DHT22;32921;53.256;8.198;2023-07-31T03:28:32;15.10;99.90
47162;DHT22;32921;53.256;8.198;2023-07-31T03:30:57;15.10;99.90
47162;DHT22;32921;53.256;8.198;2023-07-31T03:33:23;15.20;99.90
47162;DHT22;32921;53.256;8.198;2023-07-31T03:35:49;15.20;99.90
47162;DHT22;32921;53.256;8.198;2023-07-31T03:38:14;15.20;99.90
47162;DHT22;32921;53.256;8.198;2023-07-31T03:40:40;15.20;99.90
47162;DHT22;32921;53.256;8.198;2023-07-31T03:43:06;15.20;99.90
47162;DHT22;32921;53.256;8.198;2023-07-31T03:45:31;15.20;99.90
47162;DHT22;32921;53.256;8.198;2023-07-31T03:47:57;15.20;99.90
47162;DHT22;32921;53.256;8.198;2023-07-31T03:50:23;15.20;99.90
47162;DHT22;32921;53.256;8.198;2023-07-31T03:52:50;15.20;99.90
47162;DHT22;32921;53.256;8.198;2023-07-31T03:55:16;15.20;99.90
47162;DHT22;32921;53.256;8.198;2023-07-31T03:57:41;15.20;99.90
47162;DHT22;32921;53.256;8.198;2023-07-31T04:00:07;15.20;99.90
47162;DHT22;32921;53.256;8.198;2023-07-31T04:02:33;15.20;99.90
47162;DHT22;32921;53.256;8.198;2023-07-31T04:04:58;15.20;99.90
47162;DHT22;32921;53.256;8.198;2023-07-31T04:07:24;15.20;99.90
47162;DHT22;32921;53.256;8.198;2023-07-31T04:09:49;15.20;99.90
47162;DHT22;32921;53.256;8.198;2023-07-31T04:12:15;15.20;99.90
47162;DHT22;32921;53.256;8.198;2023-07-31T04:14:40;15.20;99.90
47162;DHT22;32921;53.256;8.198;2023-07-31T04:17:06;15.20;99.90
47162;DHT22;32921;53.256;8.198;2023-07-31T04:19:31;15.20;99.90
47162;DHT22;32921;53.256;8.198;2023-07-31T04:21:57;15.30;99.90
47162;DHT22;32921;53.256;8.198;2023-07-31T04:24:23;15.20;99.90
47162;DHT22;32921;53.256;8.198;2023-07-31T04:26:52;15.30;99.90
47162;DHT22;32921;53.256;8.198;2023-07-31T04:29:18;15.30;99.90
47162;DHT22;32921;53.256;8.198;2023-07-31T04:31:43;15.30;99.90
47162;DHT22;32921;53.256;8.198;2023-07-31T04:34:09;15.30;99.90
47162;DHT22;32921;53.256;8.198;2023-07-31T04:36:35;15.30;99.90
47162;DHT22;32921;53.256;8.198;2023-07-31T04:39:00;15.30;99.90
47162;DHT22;32921;53.256;8.198;2023-07-31T04:41:26;15.30;99.90
47162;DHT22;32921;53.256;8.198;2023-07-31T04:43:52;15.30;99.90
47162;DHT22;32921;53.256;8.198;2023-07-31T04:46:17;15.30;99.90
47162;DHT22;32921;53.256;8.198;2023-07-31T04:48:43;15.30;99.90
47162;DHT22;32921;53.256;8.198;2023-07-31T04:51:08;15.40;99.90
47162;DHT22;32921;53.256;8.198;2023-07-31T04:53:37;15.40;99.90
47162;DHT22;32921;53.256;8.198;2023-07-31T04:56:03;15.40;99.90
47162;DHT22;32921;53.256;8.198;2023-07-31T04:58:29;15.30;99.90
47162;DHT22;32921;53.256;8.198;2023-07-31T05:00:54;15.40;99.90
47162;DHT22;32921;53.256;8.198;2023-07-31T05:03:20;15.40;99.90
47162;DHT22;32921;53.256;8.198;2023-07-31T05:05:45;15.40;99.90
47162;DHT22;32921;53.256;8.198;2023-07-31T05:08:11;15.50;99.90
47162;DHT22;32921;53.256;8.198;2023-07-31T05:10:37;15.50;99.90
47162;DHT22;32921;53.256;8.198;2023-07-31T05:13:02;15.50;99.90
47162;DHT22;32921;53.256;8.198;2023-07-31T05:15:28;15.60;99.90
47162;DHT22;32921;53.256;8.198;2023-07-31T05:17:54;15.70;99.90
47162;DHT22;32921;53.256;8.198;2023-07-31T05:20:20;15.70;99.90
47162;DHT22;32921;53.256;8.198;2023-07-31T05:22:46;15.70;99.90
47162;DHT22;32921;53.256;8.198;2023-07-31T05:25:11;15.70;99.90
47162;DHT22;32921;53.256;8.198;2023-07-31T05:27:37;15.80;99.90
47162;DHT22;32921;53.256;8.198;2023-07-31T05:30:03;15.80;99.90
47162;DHT22;32921;53.256;8.198;2023-07-31T05:32:28;15.90;99.90
47162;DHT22;32921;53.256;8.198;2023-07-31T05:34:54;15.80;99.90
47162;DHT22;32921;53.256;8.198;2023-07-31T05:37:20;16.00;99.90
47162;DHT22;32921;53.256;8.198;2023-07-31T05:39:45;16.00;99.90
47162;DHT22;32921;53.256;8.198;2023-07-31T05:42:11;16.00;99.90
47162;DHT22;32921;53.256;8.198;2023-07-31T05:44:36;15.90;99.90
47162;DHT22;32921;53.256;8.198;2023-07-31T05:47:02;15.90;99.90
47162;DHT22;32921;53.256;8.198;2023-07-31T05:49:28;15.80;99.90
47162;DHT22;32921;53.256;8.198;2023-07-31T05:51:53;15.80;99.90
47162;DHT22;32921;53.256;8.198;2023-07-31T05:54:19;15.80;99.90
47162;DHT22;32921;53.256;8.198;2023-07-31T05:56:44;15.80;99.90
47162;DHT22;32921;53.256;8.198;2023-07-31T05:59:12;15.90;99.90
47162;DHT22;32921;53.256;8.198;2023-07-31T06:01:38;15.80;99.90
47162;DHT22;32921;53.256;8.198;2023-07-31T06:04:04;16.00;99.90
47162;DHT22;32921;53.256;8.198;2023-07-31T06:06:30;16.00;99.90
47162;DHT22;32921;53.256;8.198;2023-07-31T06:08:55;16.00;99.90
47162;DHT22;32921;53.256;8.198;2023-07-31T06:11:21;16.00;99.90
47162;DHT22;32921;53.256;8.198;2023-07-31T06:13:47;16.10;99.90
47162;DHT22;32921;53.256;8.198;2023-07-31T06:16:14;16.00;99.90
47162;DHT22;32921;53.256;8.198;2023-07-31T06:18:40;16.10;99.90
47162;DHT22;32921;53.256;8.198;2023-07-31T06:21:06;16.20;99.90
47162;DHT22;32921;53.256;8.198;2023-07-31T06:23:32;16.30;99.90
47162;DHT22;32921;53.256;8.198;2023-07-31T06:25:57;16.40;99.90
47162;DHT22;32921;53.256;8.198;2023-07-31T06:28:29;16.50;99.90
47162;DHT22;32921;53.256;8.198;2023-07-31T06:30:56;16.50;99.90
47162;DHT22;32921;53.256;8.198;2023-07-31T06:33:21;16.50;99.90
47162;DHT22;32921;53.256;8.198;2023-07-31T06:35:47;16.50;99.90
47162;DHT22;32921;53.256;8.198;2023-07-31T06:38:12;16.50;99.90
47162;DHT22;32921;53.256;8.198;2023-07-31T06:40:38;16.50;99.90
47162;DHT22;32921;53.256;8.198;2023-07-31T06:43:03;16.50;99.90
47162;DHT22;32921;53.256;8.198;2023-07-31T06:45:34;16.50;99.90
47162;DHT22;32921;53.256;8.198;2023-07-31T06:48:01;16.60;99.90
47162;DHT22;32921;53.256;8.198;2023-07-31T06:50:31;16.80;99.90
47162;DHT22;32921;53.256;8.198;2023-07-31T06:52:56;16.90;99.90
47162;DHT22;32921;53.256;8.198;2023-07-31T06:55:23;16.80;99.90
47162;DHT22;32921;53.256;8.198;2023-07-31T06:57:53;16.70;99.90
47162;DHT22;32921;53.256;8.198;2023-07-31T07:00:20;16.70;99.90
47162;DHT22;32921;53.256;8.198;2023-07-31T07:02:46;16.80;99.90
47162;DHT22;32921;53.256;8.198;2023-07-31T07:05:16;16.80;99.90
47162;DHT22;32921;53.256;8.198;2023-07-31T07:07:42;16.90;99.90
47162;DHT22;32921;53.256;8.198;2023-07-31T07:10:09;16.90;99.90
47162;DHT22;32921;53.256;8.198;2023-07-31T07:12:35;17.00;99.90
47162;DHT22;32921;53.256;8.198;2023-07-31T07:15:01;16.90;99.90
47162;DHT22;32921;53.256;8.198;2023-07-31T07:17:28;16.70;99.90
47162;DHT22;32921;53.256;8.198;2023-07-31T07:19:56;16.70;99.90
47162;DHT22;32921;53.256;8.198;2023-07-31T07:22:22;16.60;99.90
47162;DHT22;32921;53.256;8.198;2023-07-31T07:24:48;16.60;99.90
47162;DHT22;32921;53.256;8.198;2023-07-31T07:27:13;16.60;99.90
47162;DHT22;32921;53.256;8.198;2023-07-31T07:29:40;16.60;99.90
47162;DHT22;32921;53.256;8.198;2023-07-31T07:32:05;16.70;99.90
47162;DHT22;32921;53.256;8.198;2023-07-31T07:34:31;16.70;99.90
47162;DHT22;32921;53.256;8.198;2023-07-31T07:36:57;16.70;99.90
47162;DHT22;32921;53.256;8.198;2023-07-31T07:39:22;16.80;99.90
47162;DHT22;32921;53.256;8.198;2023-07-31T07:41:48;16.80;99.90
47162;DHT22;32921;53.256;8.198;2023-07-31T07:44:14;17.00;99.90
47162;DHT22;32921;53.256;8.198;2023-07-31T07:46:40;17.30;99.90
47162;DHT22;32921;53.256;8.198;2023-07-31T07:49:06;17.20;99.90
47162;DHT22;32921;53.256;8.198;2023-07-31T07:51:32;17.30;99.90
47162;DHT22;32921;53.256;8.198;2023-07-31T07:54:00;17.20;99.90
47162;DHT22;32921;53.256;8.198;2023-07-31T07:56:27;17.00;99.90
47162;DHT22;32921;53.256;8.198;2023-07-31T07:58:53;17.00;99.90
47162;DHT22;32921;53.256;8.198;2023-07-31T08:01:19;17.10;99.90
47162;DHT22;32921;53.256;8.198;2023-07-31T08:03:45;17.10;99.90
47162;DHT22;32921;53.256;8.198;2023-07-31T08:06:11;17.10;99.90
47162;DHT22;32921;53.256;8.198;2023-07-31T08:08:37;17.10;99.90
47162;DHT22;32921;53.256;8.198;2023-07-31T08:11:03;17.20;99.90
47162;DHT22;32921;53.256;8.198;2023-07-31T08:13:28;17.20;99.90
47162;DHT22;32921;53.256;8.198;2023-07-31T08:15:54;17.10;99.90
47162;DHT22;32921;53.256;8.198;2023-07-31T08:18:20;17.10;99.90
47162;DHT22;32921;53.256;8.198;2023-07-31T08:20:45;17.10;99.90
47162;DHT22;32921;53.256;8.198;2023-07-31T08:23:11;17.20;99.90
47162;DHT22;32921;53.256;8.198;2023-07-31T08:25:37;17.20;99.90
47162;DHT22;32921;53.256;8.198;2023-07-31T08:28:03;17.20;99.90
47162;DHT22;32921;53.256;8.198;2023-07-31T08:30:29;17.30;99.90
47162;DHT22;32921;53.256;8.198;2023-07-31T08:32:55;17.40;99.90
47162;DHT22;32921;53.256;8.198;2023-07-31T08:35:21;17.40;99.90
47162;DHT22;32921;53.256;8.198;2023-07-31T08:37:46;17.30;99.90
47162;DHT22;32921;53.256;8.198;2023-07-31T08:40:12;17.20;99.90
47162;DHT22;32921;53.256;8.198;2023-07-31T08:42:46;17.20;99.90
47162;DHT22;32921;53.256;8.198;2023-07-31T08:45:20;17.20;99.90
47162;DHT22;32921;53.256;8.198;2023-07-31T08:47:48;17.10;99.90
47162;DHT22;32921;53.256;8.198;2023-07-31T08:50:15;17.10;99.90
47162;DHT22;32921;53.256;8.198;2023-07-31T08:52:41;17.10;99.90
47162;DHT22;32921;53.256;8.198;2023-07-31T08:55:07;17.10;99.90
47162;DHT22;32921;53.256;8.198;2023-07-31T08:57:36;17.10;99.90
47162;DHT22;32921;53.256;8.198;2023-07-31T09:00:04;17.20;99.90
47162;DHT22;32921;53.256;8.198;2023-07-31T09:05:16;17.40;99.90
47162;DHT22;32921;53.256;8.198;2023-07-31T09:07:45;17.40;99.90
47162;DHT22;32921;53.256;8.198;2023-07-31T09:10:12;17.40;99.90
47162;DHT22;32921;53.256;8.198;2023-07-31T09:12:38;17.30;99.90
47162;DHT22;32921;53.256;8.198;2023-07-31T09:15:05;17.30;99.90
47162;DHT22;32921;53.256;8.198;2023-07-31T09:17:35;17.30;99.90
47162;DHT22;32921;53.256;8.198;2023-07-31T09:20:20;17.40;99.90
47162;DHT22;32921;53.256;8.198;2023-07-31T09:22:47;17.40;99.90
47162;DHT22;32921;53.256;8.198;2023-07-31T09:25:21;17.40;99.90
47162;DHT22;32921;53.256;8.198;2023-07-31T09:27:58;17.40;99.90
47162;DHT22;32921;53.256;8.198;2023-07-31T09:30:24;17.50;99.90
47162;DHT22;32921;53.256;8.198;2023-07-31T09:32:50;17.60;99.90
47162;DHT22;32921;53.256;8.198;2023-07-31T09:35:29;17.70;99.90
47162;DHT22;32921;53.256;8.198;2023-07-31T09:37:58;17.80;99.90
47162;DHT22;32921;53.256;8.198;2023-07-31T09:40:35;17.80;99.90
47162;DHT22;32921;53.256;8.198;2023-07-31T09:43:08;18.00;99.90
47162;DHT22;32921;53.256;8.198;2023-07-31T09:45:39;18.10;99.90
47162;DHT22;32921;53.256;8.198;2023-07-31T09:48:10;18.10;99.90
47162;DHT22;32921;53.256;8.198;2023-07-31T09:50:39;18.20;99.90
47162;DHT22;32921;53.256;8.198;2023-07-31T09:53:07;18.10;99.90
47162;DHT22;32921;53.256;8.198;2023-07-31T09:55:33;18.10;99.90
47162;DHT22;32921;53.256;8.198;2023-07-31T09:58:00;18.10;99.90
47162;DHT22;32921;53.256;8.198;2023-07-31T10:00:30;18.00;99.90
47162;DHT22;32921;53.256;8.198;2023-07-31T10:02:59;18.00;99.90
47162;DHT22;32921;53.256;8.198;2023-07-31T10:05:35;17.90;99.90
47162;DHT22;32921;53.256;8.198;2023-07-31T10:08:01;17.80;99.90
47162;DHT22;32921;53.256;8.198;2023-07-31T10:10:27;17.90;99.90
47162;DHT22;32921;53.256;8.198;2023-07-31T10:12:53;17.80;99.90
47162;DHT22;32921;53.256;8.198;2023-07-31T10:15:19;17.90;99.90
47162;DHT22;32921;53.256;8.198;2023-07-31T10:17:49;17.90;99.90
47162;DHT22;32921;53.256;8.198;2023-07-31T10:20:15;18.00;99.90
47162;DHT22;32921;53.256;8.198;2023-07-31T10:22:44;18.10;99.90
47162;DHT22;32921;53.256;8.198;2023-07-31T10:25:12;18.20;99.90
47162;DHT22;32921;53.256;8.198;2023-07-31T10:27:39;18.00;99.90
47162;DHT22;32921;53.256;8.198;2023-07-31T10:30:08;18.10;99.90
47162;DHT22;32921;53.256;8.198;2023-07-31T10:32:34;18.30;99.90
47162;DHT22;32921;53.256;8.198;2023-07-31T10:35:02;18.40;99.90
47162;DHT22;32921;53.256;8.198;2023-07-31T10:37:30;18.30;99.90
47162;DHT22;32921;53.256;8.198;2023-07-31T10:40:05;18.30;99.90
47162;DHT22;32921;53.256;8.198;2023-07-31T10:42:37;18.30;99.90
47162;DHT22;32921;53.256;8.198;2023-07-31T10:45:08;18.30;99.90
47162;DHT22;32921;53.256;8.198;2023-07-31T10:47:46;18.40;99.90
47162;DHT22;32921;53.256;8.198;2023-07-31T10:50:19;18.30;99.90
47162;DHT22;32921;53.256;8.198;2023-07-31T10:52:53;18.30;99.90
47162;DHT22;32921;53.256;8.198;2023-07-31T10:55:28;18.30;99.90
47162;DHT22;32921;53.256;8.198;2023-07-31T10:58:05;18.20;99.90
47162;DHT22;32921;53.256;8.198;2023-07-31T11:00:31;18.50;99.90
47162;DHT22;32921;53.256;8.198;2023-07-31T11:03:05;18.70;99.90
47162;DHT22;32921;53.256;8.198;2023-07-31T11:06:00;18.70;99.90
47162;DHT22;32921;53.256;8.198;2023-07-31T11:08:29;18.70;99.90
47162;DHT22;32921;53.256;8.198;2023-07-31T11:11:05;18.70;99.90
47162;DHT22;32921;53.256;8.198;2023-07-31T11:16:08;18.70;99.90
47162;DHT22;32921;53.256;8.198;2023-07-31T11:18:35;18.80;99.90
47162;DHT22;32921;53.256;8.198;2023-07-31T11:21:01;19.00;99.90
47162;DHT22;32921;53.256;8.198;2023-07-31T11:23:26;19.10;99.90
47162;DHT22;32921;53.256;8.198;2023-07-31T11:25:52;19.20;99.90
47162;DHT22;32921;53.256;8.198;2023-07-31T11:28:18;19.10;99.90
47162;DHT22;32921;53.256;8.198;2023-07-31T11:30:45;19.10;99.90
47162;DHT22;32921;53.256;8.198;2023-07-31T11:33:12;19.10;99.90
47162;DHT22;32921;53.256;8.198;2023-07-31T11:35:46;19.20;99.90
47162;DHT22;32921;53.256;8.198;2023-07-31T11:38:16;19.20;99.90
47162;DHT22;32921;53.256;8.198;2023-07-31T11:40:46;19.10;99.90
47162;DHT22;32921;53.256;8.198;2023-07-31T11:43:11;19.00;99.90
47162;DHT22;32921;53.256;8.198;2023-07-31T11:45:41;19.00;99.90
47162;DHT22;32921;53.256;8.198;2023-07-31T11:48:07;19.10;99.90
47162;DHT22;32921;53.256;8.198;2023-07-31T11:50:33;19.20;99.90
47162;DHT22;32921;53.256;8.198;2023-07-31T11:53:03;19.30;99.90
47162;DHT22;32921;53.256;8.198;2023-07-31T11:55:32;19.20;99.90
47162;DHT22;32921;53.256;8.198;2023-07-31T11:57:59;19.10;99.90
47162;DHT22;32921;53.256;8.198;2023-07-31T12:00:25;19.10;99.90
47162;DHT22;32921;53.256;8.198;2023-07-31T12:02:51;18.80;99.90
47162;DHT22;32921;53.256;8.198;2023-07-31T12:05:18;18.90;99.90
47162;DHT22;32921;53.256;8.198;2023-07-31T12:07:54;19.00;99.90
47162;DHT22;32921;53.256;8.198;2023-07-31T12:12:59;19.00;99.90
47162;DHT22;32921;53.256;8.198;2023-07-31T12:15:34;19.00;99.90
47162;DHT22;32921;53.256;8.198;2023-07-31T12:18:03;19.00;99.90
47162;DHT22;32921;53.256;8.198;2023-07-31T12:20:30;18.90;99.90
47162;DHT22;32921;53.256;8.198;2023-07-31T12:22:56;18.80;99.90
47162;DHT22;32921;53.256;8.198;2023-07-31T12:25:28;18.90;99.90
47162;DHT22;32921;53.256;8.198;2023-07-31T12:27:53;18.80;99.90
47162;DHT22;32921;53.256;8.198;2023-07-31T12:30:29;18.90;99.90
47162;DHT22;32921;53.256;8.198;2023-07-31T12:33:06;19.10;99.90
47162;DHT22;32921;53.256;8.198;2023-07-31T12:35:37;19.30;99.90
47162;DHT22;32921;53.256;8.198;2023-07-31T12:38:02;19.40;99.90
47162;DHT22;32921;53.256;8.198;2023-07-31T12:40:28;19.40;99.90
47162;DHT22;32921;53.256;8.198;2023-07-31T12:42:54;19.40;99.90
47162;DHT22;32921;53.256;8.198;2023-07-31T12:45:19;19.40;99.90
47162;DHT22;32921;53.256;8.198;2023-07-31T12:47:46;19.30;99.90
47162;DHT22;32921;53.256;8.198;2023-07-31T12:50:12;19.30;99.90
47162;DHT22;32921;53.256;8.198;2023-07-31T12:52:38;19.20;99.90
47162;DHT22;32921;53.256;8.198;2023-07-31T12:55:03;19.20;99.90
47162;DHT22;32921;53.256;8.198;2023-07-31T12:57:30;19.10;99.90
47162;DHT22;32921;53.256;8.198;2023-07-31T12:59:55;19.00;99.90
47162;DHT22;32921;53.256;8.198;2023-07-31T13:02:21;18.90;99.90
47162;DHT22;32921;53.256;8.198;2023-07-31T13:04:47;18.90;99.90
47162;DHT22;32921;53.256;8.198;2023-07-31T13:07:12;18.80;99.90
47162;DHT22;32921;53.256;8.198;2023-07-31T13:09:38;18.80;99.90
47162;DHT22;32921;53.256;8.198;2023-07-31T13:12:04;18.70;99.90
47162;DHT22;32921;53.256;8.198;2023-07-31T13:14:29;18.60;99.90
47162;DHT22;32921;53.256;8.198;2023-07-31T13:16:55;18.60;99.90
47162;DHT22;32921;53.256;8.198;2023-07-31T13:19:30;18.50;99.90
47162;DHT22;32921;53.256;8.198;2023-07-31T13:21:55;18.60;99.90
47162;DHT22;32921;53.256;8.198;2023-07-31T13:24:21;18.70;99.90
47162;DHT22;32921;53.256;8.198;2023-07-31T13:26:49;18.80;99.90
47162;DHT22;32921;53.256;8.198;2023-07-31T13:29:15;18.80;99.90
47162;DHT22;32921;53.256;8.198;2023-07-31T13:31:40;18.80;99.90
47162;DHT22;32921;53.256;8.198;2023-07-31T13:34:06;18.80;99.90
47162;DHT22;32921;53.256;8.198;2023-07-31T13:36:31;18.90;99.90
47162;DHT22;32921;53.256;8.198;2023-07-31T13:38:59;18.80;99.90
47162;DHT22;32921;53.256;8.198;2023-07-31T13:41:25;19.00;99.90
47162;DHT22;32921;53.256;8.198;2023-07-31T13:43:50;19.00;99.90
47162;DHT22;32921;53.256;8.198;2023-07-31T13:46:16;19.00;99.90
47162;DHT22;32921;53.256;8.198;2023-07-31T13:48:41;19.00;99.90
47162;DHT22;32921;53.256;8.198;2023-07-31T13:51:07;19.10;99.90
47162;DHT22;32921;53.256;8.198;2023-07-31T13:53:32;19.10;99.90
47162;DHT22;32921;53.256;8.198;2023-07-31T13:55:58;19.10;99.90
47162;DHT22;32921;53.256;8.198;2023-07-31T13:58:23;19.20;99.90
47162;DHT22;32921;53.256;8.198;2023-07-31T14:00:49;19.30;99.90
47162;DHT22;32921;53.256;8.198;2023-07-31T14:03:15;19.30;99.90
47162;DHT22;32921;53.256;8.198;2023-07-31T14:05:40;19.40;99.90
47162;DHT22;32921;53.256;8.198;2023-07-31T14:08:06;19.40;99.90
47162;DHT22;32921;53.256;8.198;2023-07-31T14:10:31;19.30;99.90
47162;DHT22;32921;53.256;8.198;2023-07-31T14:12:57;19.30;99.90
47162;DHT22;32921;53.256;8.198;2023-07-31T14:15:22;19.30;99.90
47162;DHT22;32921;53.256;8.198;2023-07-31T14:17:48;19.30;99.90
47162;DHT22;32921;53.256;8.198;2023-07-31T14:20:13;19.10;99.90
47162;DHT22;32921;53.256;8.198;2023-07-31T14:22:39;19.00;99.90
47162;DHT22;32921;53.256;8.198;2023-07-31T14:25:05;19.00;99.90
47162;DHT22;32921;53.256;8.198;2023-07-31T14:27:31;18.90;99.90
47162;DHT22;32921;53.256;8.198;2023-07-31T14:29:56;18.80;99.90
47162;DHT22;32921;53.256;8.198;2023-07-31T14:32:22;18.80;99.90
47162;DHT22;32921;53.256;8.198;2023-07-31T14:34:50;18.80;99.90
47162;DHT22;32921;53.256;8.198;2023-07-31T14:37:16;18.70;99.90
47162;DHT22;32921;53.256;8.198;2023-07-31T14:39:42;18.80;99.90
47162;DHT22;32921;53.256;8.198;2023-07-31T14:42:08;18.90;99.90
47162;DHT22;32921;53.256;8.198;2023-07-31T14:44:34;19.00;99.90
47162;DHT22;32921;53.256;8.198;2023-07-31T14:46:59;19.00;99.90
47162;DHT22;32921;53.256;8.198;2023-07-31T14:49:25;19.20;99.90
47162;DHT22;32921;53.256;8.198;2023-07-31T14:51:52;19.60;99.90
47162;DHT22;32921;53.256;8.198;2023-07-31T14:54:18;20.00;99.90
47162;DHT22;32921;53.256;8.198;2023-07-31T14:56:43;20.30;99.90
47162;DHT22;32921;53.256;8.198;2023-07-31T14:59:09;20.90;99.90
47162;DHT22;32921;53.256;8.198;2023-07-31T15:01:35;20.90;99.90
47162;DHT22;32921;53.256;8.198;2023-07-31T15:04:00;20.80;99.90
47162;DHT22;32921;53.256;8.198;2023-07-31T15:06:26;20.70;99.90
47162;DHT22;32921;53.256;8.198;2023-07-31T15:08:51;20.70;99.90
47162;DHT22;32921;53.256;8.198;2023-07-31T15:11:17;20.80;99.90
47162;DHT22;32921;53.256;8.198;2023-07-31T15:13:43;20.80;99.90
47162;DHT22;32921;53.256;8.198;2023-07-31T15:16:09;20.60;99.90
47162;DHT22;32921;53.256;8.198;2023-07-31T15:18:34;20.60;99.90
47162;DHT22;32921;53.256;8.198;2023-07-31T15:21:00;20.60;99.90
47162;DHT22;32921;53.256;8.198;2023-07-31T15:23:26;20.40;99.90
47162;DHT22;32921;53.256;8.198;2023-07-31T15:25:51;20.30;99.90
47162;DHT22;32921;53.256;8.198;2023-07-31T15:28:18;20.40;99.90
47162;DHT22;32921;53.256;8.198;2023-07-31T15:30:44;20.50;99.90
47162;DHT22;32921;53.256;8.198;2023-07-31T15:33:09;20.70;99.90
47162;DHT22;32921;53.256;8.198;2023-07-31T15:35:35;20.90;99.90
47162;DHT22;32921;53.256;8.198;2023-07-31T15:38:00;20.60;99.90
47162;DHT22;32921;53.256;8.198;2023-07-31T15:40:26;20.80;99.90
47162;DHT22;32921;53.256;8.198;2023-07-31T15:42:51;20.80;99.90